Pos PIC No. Name 1 Name 2 Club Category Laps Total Tm Diff Avg. Speed
1 1 315 Noam Schiller Omer Katzman ccc MEN 1 02:59:52   23.017
2 2 316 Amnon Israeli Yoav Dror the buttons MEN 1 03:00:38 00:00:47 22.919
3 3 323 Guy Kaftori Dvir Almog The Buttons MEN 1 03:02:57 00:03:07 22.629
4 4 320 Eliad Daniel David Reznik SIGMA MEN 1 03:07:08 00:07:18 22.123
5 1 509 Amos Gery Zohar Galili Ccc GM 50+ 1 03:08:36 00:08:45 21.951
6 5 322 Rafi Shitrit Lior Biton ncc MEN 1 03:12:25 00:12:35 21.515
7 1 426 Gal Tsachor Nadav Lugasy CCC Masters 40+ 1 03:13:46 00:13:55 21.367
8 6 310 Omri Arbel Dan Carmel nitro MEN 1 03:17:45 00:17:55 20.935
9 7 306 Yonatan Yatom Guy Bar hd-trek / team fatty MEN 1 03:18:04 00:18:14 20.902
10 2 501 Gil Olshanski Gil Kashi FGC GM 50+ 1 03:18:03    
11 2 428 Moran Mainz Guy Baumel   Masters 40+ 1 03:18:22 00:18:32 20.87
12 8 325 Tal Goldman Or Dayan csc MEN 1 03:19:14 00:19:23 20.78
13 3 430 Roy Haker Hagai Anaby טים הצגה Masters 40+ 1 03:22:14 00:22:23 20.472
14 4 444 Shavit Kohavi Amitay Cohen דינמו ריסנג Masters 40+ 1 03:22:48 00:22:57 20.414
15 9 319 Ehud Amitai Eldad Ohayon חץ הצפון MEN 1 03:26:13 00:26:22 20.076
16 5 437 Arnon Shadmi Eyal Katzenstein CCC Masters 40+ 1 03:26:36 00:26:46 20.039
17 10 331 Danny Balaban NImrod Mashiah Joe's No Flats MEN 1 03:26:37 00:26:46 20.037
18 3 504 Yakov Cohen Rafi Niv tbw GM 50+ 1 03:26:48 00:26:57 20.02
19 11 311 Guy Shabi Asaf Shaked mike bike MEN 1 03:31:01 00:31:11 19.619
20 12 301 Mirko De Angelis Stefano Chiri ASD / Six Inch MEN 1 03:31:29 00:31:39 19.575
21 13 318 Geva Yehoshua Eldad Maimon ccc MEN 1 03:32:01 00:32:11 19.527
22 14 314 Sausar Sagas Mosa Shogan circassian MEN 1 03:32:10 00:32:19 19.513
23 15 317 Saar Arni Adar Shadmi Bikeway MEN 1 03:32:37 00:32:46 19.472
24 6 415 Gonen Wilf Tal Gamzo HD-Trek Masters 40+ 1 03:33:00 00:33:10 19.436
25 7 438 Sasy Levi Israel Shaviv the buttons Masters 40+ 1 03:33:15 00:33:24 19.414
26 8 453 Nati Thawco Musa Gerchad Adiga Riders Masters 40+ 1 03:33:29 00:33:38 19.392
27 9 431 Zack Uchovski Eylon Zefania we ride Masters 40+ 1 03:33:33 00:33:42 19.387
28 10 405 Hadorm Carmi Asaf Inbar BIKE WAY Masters 40+ 1 03:33:46 00:33:56 19.366
29 16 302 Wayne Wonnacott Mike Levy Pinkbike MEN 1 03:33:55 00:34:04 19.353
30 17 304 Saleh Mah Emanuel Aronhime For Galilee Cycling MEN 1 03:34:02 00:34:11 19.343
31 1 101 Hanoch Redlich Adi Medan-Friling hr team MIXED 1 03:35:56 00:36:05 19.173
32 18 326 Adam Gerchad Noah Thako 0 MEN 1 03:35:59 00:36:08 19.169
33 11 445 Daniel Kaminsky Eli Altman CCC Masters 40+ 1 03:36:31 00:36:40 19.121
34 12 408 Raz Shamai Arnon Rosenbaum Eshkolot Masters 40+ 1 03:37:13 00:37:22 19.06
35 2 106 Gil Cohen Maayan Gil מסטרס חיפה MIXED 1 03:37:40 00:37:49 19.02
36 19 324 Fima Ulitsky Tal Shorer the buttons MEN 1 03:38:01 00:38:10 18.99
37 13 429 Gil-Ad Boshwitz Zeev Gottlieb רוכבי הצפון Masters 40+ 1 03:38:33 00:38:43 18.942
38 14 433 Yair Shaked Yuval Levi HR team Masters 40+ 1 03:39:03 00:39:13 18.899
39 15 427 Shy Shyman Chen Tal CCC Masters 40+ 1 03:41:11 00:41:21 18.718
40 16 442 Tomer Cohen Ori Weitz HR / WBR Team Masters 40+ 1 03:47:01 00:47:11 18.237
41 17 423 Yaniv Shabat ?Golan?‏ Levy?‏ THE BUTTONS Masters 40+ 1 03:47:02 00:47:11 18.236
42 20 330 Jan Nash Adam Shamsi Adiga Riders MEN 1 03:47:45 00:47:55 18.178
43 4 513 Jan Huyse Ron Dagan N+1 GM 50+ 1 03:48:03 00:48:12 18.154
44 18 402 Gil Poyastro Kannenberg Jan - Hennik the buttons Masters 40+ 1 03:48:04 00:48:12 18.152
45 21 312 Max Apartin Tsahi Tal Rakefet MEN 1 03:48:09 00:48:19 18.146
46 22 328 Daniel Stamler Jonathan Stamler BIKEWAY MEN 1 03:50:00 00:50:10 18
47 3 107 Orna Ratson Ilan Edelson ccc MIXED 1 03:50:09 00:50:18 17.989
48 23 321 Arik Kleiman Yoav Garibi city cycling club MEN 1 03:51:31 00:51:41 17.882
49 19 446 Mario Seroneta Assaf Klein ccc Masters 40+ 1 03:52:33 00:52:41 17.803
50 4 103 Adi Vainiger Doron Amitz 4Epic MIXED 1 03:52:49 00:52:58 17.783
51 20 418 Boaz Sokol Barak Oknin Team Bike Way Masters 40+ 1 03:52:49 00:52:58 17.782
52 5 511 Alon Abend Tomer Neuner עצמאי GM 50+ 1 03:55:06 00:55:16 17.609
53 21 407 Yaron Rapaport Sagi Unger 4EPIC Masters 40+ 1 03:55:44 00:55:53 17.563
54 22 457 Shay Mandel Tal Naveh 4EPIC Masters 40+ 1 04:00:15 01:00:25 17.232
55 6 503 Dudu Goldfarb Danny Seelenfreund 4epic GM 50+ 1 04:00:20 01:00:29 17.227
56 1 203 Moran Feller Ola Ostrovsky Bike Way WOMEN 1 04:00:45 01:00:54 17.197
57 5 112 Hadas Weiss Amit Adar ccc MIXED 1 04:02:12 01:02:21 17.093
58 23 414 oleg tchernishov Gil Mazor 4epic Masters 40+ 1 04:03:52 01:04:01 16.977
59 24 435 Samuel Attali Dvir Libhaber ccc Masters 40+ 1 04:04:15 01:04:25 16.949
60 25 424 Vaun Wende Rami Asraf buttons Masters 40+ 1 04:04:43 01:04:52 16.918
61 7 508 Moshe Feingezicht Nir Sever CCC GM 50+ 1 04:04:50 01:05:00 16.909
62 24 305 Nir Ben Shabat Yoram Ben Shabat vegan athlete MEN 1 04:05:54 01:06:03 16.837
63 8 505 Yoni Deshe Shay Kaofman city cycling club GM 50+ 1 04:05:57 01:06:06 16.833
64 25 308 Guy Luria Uri Luria Chocolate Starfish MEN 1 04:06:29 01:06:38 16.797
65 26 432 Ilan Tevet Amitai Tafla HR team Masters 40+ 1 04:07:27 01:07:36 16.731
66 2 202 Amanda Genez Shlomit Ben Ish CCC WOMEN 1 04:08:28    
67 27 406 Sagi Bareket Lior Cohen The Buttons Masters 40+ 1 04:09:45 01:09:55 16.576
68 28 451 Ohad Saban Yossi Saban saban team Masters 40+ 1 04:10:44 01:10:53 16.512
69 26 327 Guy Liran Emanuel Stanciu hr team MEN 1 04:11:51 01:12:00 16.439
70 9 510 Yoel Vinocur Ido Bourstein HR team GM 50+ 1 04:14:25 01:14:35 16.272
71 29 439 Tomer Osher Doron Masuri ccc Masters 40+ 1 04:20:47 01:20:57 15.875
72 27 333 Nissan Cohen Omri Dekel GIANT MEN 1 04:21:42 01:21:51 15.82
73 30 456 Eyal Ovadia Eitan Fux TEAM 124 Masters 40+ 1 04:22:24 01:22:33 15.778
74 31 436 Ofer Arussi Reuven Kaplan Great Big Rhinos Masters 40+ 1 04:22:45 01:22:55 15.756
75 32 441 Babi Levi Alon erez carmeliteam Masters 40+ 1 04:24:57 01:25:06 15.626
76 33 404 Oren Grozovik Shmuel Ezer   Masters 40+ 1 04:26:27 01:26:36 15.538
77 34 443 Shay Yaron Assaf Eisenstein team niner Masters 40+ 1 04:28:27 01:28:36 15.422
78 35 449 Assaf Mizrahi Lior Werner assafAndlior Masters 40+ 1 04:31:41 01:31:51 15.238
79 10 516 Mike Penciner Elad Raz The Buttons GM 50+ 1 04:31:52 01:32:01 15.228
80 36 409 Nimrod Ben David Adi Deutsch Giant Masters 40+ 1 04:32:00 01:32:10 15.221
81 37 416 Yoske Fitoussi Alon Sahar private Masters 40+ 1 04:33:19 01:33:29 15.147
82 38 421 Raz Lederman Yona Dvir 4EPIC Masters 40+ 1 04:33:59 01:34:09 15.11
83 39 447 Shemi Dayan Tzachi Aviv THE BUTTONS Masters 40+ 1 04:34:24 01:34:33 15.088
84 6 110 Lelde Palcevska Janis Bazevics VS kombucha MIXED 1 04:36:09 01:36:18 14.992
85 11 514 Shlomi Deutsch Yossi Ben Shalom good guys GM 50+ 1 04:37:08 01:37:18 14.938
86 3 201 Noga Leiter Anat Chen girls WOMEN 1 04:38:36 01:38:45 14.86
87 40 454 Zohar Oren Roni Elmasel THE BUTTONS Masters 40+ 1 04:38:48 01:38:57 14.85
88 7 102 Sigalit Kaufman Nhevo Kaufman Ccc MIXED 1 04:44:31 01:44:40 14.551
89 41 452 Eran Gil-Bar Avner Oron --- Masters 40+ 1 04:44:39 01:44:49 14.544
90 28 309 Dudi Amir Noam Zach 4epic MEN 1 04:44:42 01:44:51 14.541
91 8 105 sharon shachar Rami Zamir BIKEPANEL MIXED 1 04:48:29 01:48:39 14.351
92 42 417 Ran inbar Assi Nahir HR team Masters 40+ 1 04:49:54 01:50:03 14.281
93 43 412 Ben Bloom Giora Naveh B Masters 40+ 1 04:51:59 01:52:09 14.179
94 44 440 Ori Amir Arie Margalit HR Team Masters 40+ 1 04:54:56 01:55:05 14.037
95 45 420 ilan shimoni Guy Shalev team bike way Masters 40+ 1 04:56:48 01:56:57 13.949
96 46 403 Zack Nahari Sharon Peri pernah Masters 40+ 1 04:58:25 01:58:34 13.873
97 47 448 Itai Ahiraz Tzvika Gross THE BUTTONS Masters 40+ 1 04:59:55 02:00:04 13.804
98 9 108 Orit Neulander Ron Neulander Bikers MIXED 1 04:59:59 02:00:08 13.8
99 4 204 Carin Goldblatt Dafna Beeri עז ואחות WOMEN 1 05:00:06 02:00:15 13.796
100 12 502 Nir Naveh Hugo Jan Trago ccc GM 50+ 1 05:01:28 02:01:37 13.733
101 48 455 Gil Zeller Gadi Hornstein ccc Masters 40+ 1 05:02:33 02:02:43 13.683
102 49 425 Ronen Ben Hamo Shay Ben Hamo None Masters 40+ 1 05:05:00 02:05:10 13.574
103 50 411 Brad Bemish Anthony Griffin Wheelsports Masters 40+ 1 05:06:39 02:06:49 13.501
104 13 512 Bentzi Raby Eran Shapiro ג'וליאנה השעירה GM 50+ 1 05:08:20 02:08:29 13.427
105 29 332 Guy Dvir Benny Simpson CSC MEN 1 05:15:56 02:16:06 13.104
106 51 401 Amir SchwartZ Gabriel Yariv SG Masters 40+ 1 05:16:22 02:16:32 13.086
107 10 109 Iftach Sahar Michal Reiss ALLRIDE MIXED 1 05:17:04 02:17:14 13.057
108 14 515 Yoav Hofenbartel Dov Nachshon MEOFEFEI SHASBHIM GM 50+ 1 05:26:59 02:27:09 12.661
109 52 419 Zeev Bozhko Edward bortnikov Masters haifa Masters 40+ 1 05:36:01 02:36:11 12.321
110 30 307 Nor Turk Lior Madagi Adiga MEN 1 05:39:40 02:39:49 12.188
111 53 422 Guy Segal Ofer Karp Segal's FRIENDS Masters 40+ 1 05:54:43 02:54:52 11.671
112 31 329 Ran Lazar Moti Assor bykers MEN 1 05:58:50 02:58:59 11.537
113 11 104 Yasmine Adel Ron Kaftal Individual MIXED 1 06:01:44 03:01:52 11.445
114 32 313 Avinoam Baruchin Eliran Chay ULTRAMANISRAEL MEN 1 06:36:52 03:37:00 10.432
                     
      Individual Finishers              
                     
    507 Yair Mulay   4epic zbabeer GM 50+ 1 04:29:53 01:30:03 15.34
    506 Reimund Dietzen   Merida-Centurion GM 50+ 1 04:36:59 01:37:09 14.947
                     
DNF DNF 450 Gal Moshe   team hobbit Masters 40+        
DNF DNF 450 Ziv ben yehuda   TEAM HOBBIT Masters 40+        
DNF DNF 506 Wolfgang Renner   Merida-Centurion GM 50+        
DNF DNF 507 Meir Bukai   4epic zbabeer GM 50+        
DNS DNS 303 Tassan Cedric   vtopo MEN        
DNS DNS 303 Chausse Benjamin   vtopo MEN